Puto Island — XUTS7 — position and weather

sailwx.info

Track history (hours):
 
Tides and Currents Weather Stations Pressure Air Temp Water Temp Dewpoint Dewpoint Depression Visibility Wind Speed Wind Dir Waves Ship Positions

Puto Island

Last reported at 2014-Nov-11 13:30 UTC. Time now 2014-Nov-27 13:16 UTC.
Position N 30°05' E 122°36'.
Warning: this ship's position is 15 days out of date.

Length 71 m; draft 3.5 m.

Type: Cargo ship. MMSI: 514198000.

Date/timePositionNaut miles runAvg speedWind from/ knotsBaromVisibWave heightAir tempDewpointWater temp
2014-Nov-11 13:30N 30°05' E 122°36'37 8.8
2014-Nov-11 09:15N 29°28' E 122°28'  
2014-Nov-08 15:18N 29°24' E 122°25'  
2014-Nov-05 08:25N 34°37' E 135°02'910.4
2014-Nov-05 07:33N 34°36' E 135°12'10 9.9
2014-Nov-05 06:33N 34°39' E 135°24'2 0.1
2014-Nov-04 18:04N 34°40' E 135°25'0 0.0
2014-Nov-04 15:28N 34°40' E 135°25'0 0.0
2014-Nov-04 14:28N 34°40' E 135°25'0 0.0
2014-Nov-04 13:28N 34°40' E 135°25'0 0.0
2014-Nov-04 12:28N 34°40' E 135°25'0 0.0
2014-Nov-04 11:16N 34°40' E 135°25'0 0.0
2014-Nov-04 05:28N 34°40' E 135°25'0 0.0
2014-Nov-04 04:28N 34°40' E 135°25'0 0.0
2014-Nov-04 03:04N 34°40' E 135°25'0 0.0
2014-Nov-04 02:04N 34°40' E 135°25'0 0.0
2014-Nov-04 01:28N 34°40' E 135°25'0 0.0
2014-Nov-04 00:22N 34°40' E 135°25'0 0.0
2014-Nov-03 22:19N 34°40' E 135°25'3 3.5
2014-Nov-03 21:33N 34°38' E 135°23'1 1.1
2014-Nov-03 20:33N 34°37' E 135°23'0 0.0
2014-Nov-03 19:26N 34°37' E 135°23'0 0.0
2014-Nov-03 19:08N 34°37' E 135°23'0 0.0
2014-Nov-03 18:32N 34°37' E 135°23'0 0.0
2014-Nov-03 17:56N 34°37' E 135°23'0 0.1
2014-Nov-03 17:50N 34°37' E 135°23'0 0.0
2014-Nov-03 17:20N 34°37' E 135°23'0 0.0
2014-Nov-03 16:32N 34°37' E 135°23'0 0.0
2014-Nov-03 14:32N 34°37' E 135°23'0 0.0
2014-Nov-03 13:32N 34°37' E 135°23'0 0.0
2014-Nov-03 12:32N 34°37' E 135°23'0 0.0
2014-Nov-03 11:32N 34°37' E 135°23'0 0.0
2014-Nov-03 10:32N 34°37' E 135°23'0 0.0
2014-Nov-03 09:32N 34°37' E 135°23'0 0.0
2014-Nov-03 08:20N 34°37' E 135°23'0 0.0
2014-Nov-03 07:32N 34°37' E 135°23'0 0.0
2014-Nov-03 06:26N 34°37' E 135°23'0 0.1
2014-Nov-03 05:26N 34°37' E 135°23'0 0.0
2014-Nov-03 04:32N 34°37' E 135°23'0 0.0
2014-Nov-03 03:32N 34°37' E 135°23'4 3.9
2014-Nov-03 02:33N 34°36' E 135°18'1111.0
2014-Nov-03 01:33N 34°35' E 135°05'  
Track history (hours):
 
Tides and Currents Weather Stations Pressure Air Temp Water Temp Dewpoint Dewpoint Depression Visibility Wind Speed Wind Dir Waves Ship Positions

Puto Island

Last reported at 2014-Nov-11 13:30 UTC. Time now 2014-Nov-27 13:16 UTC.
Position N 30°05' E 122°36'.
Warning: this ship's position is 15 days out of date.

Length 71 m; draft 3.5 m.

Type: Cargo ship. MMSI: 514198000.

Date/timePositionNaut miles runAvg speedWind from/ knotsBaromVisibWave heightAir tempDewpointWater temp
2014-Nov-11 13:30N 30°05' E 122°36'37 8.8
2014-Nov-11 09:15N 29°28' E 122°28'  
2014-Nov-08 15:18N 29°24' E 122°25'  
2014-Nov-05 08:25N 34°37' E 135°02'910.4
2014-Nov-05 07:33N 34°36' E 135°12'10 9.9
2014-Nov-05 06:33N 34°39' E 135°24'2 0.1
2014-Nov-04 18:04N 34°40' E 135°25'0 0.0
2014-Nov-04 15:28N 34°40' E 135°25'0 0.0
2014-Nov-04 14:28N 34°40' E 135°25'0 0.0
2014-Nov-04 13:28N 34°40' E 135°25'0 0.0
2014-Nov-04 12:28N 34°40' E 135°25'0 0.0
2014-Nov-04 11:16N 34°40' E 135°25'0 0.0
2014-Nov-04 05:28N 34°40' E 135°25'0 0.0
2014-Nov-04 04:28N 34°40' E 135°25'0 0.0
2014-Nov-04 03:04N 34°40' E 135°25'0 0.0
2014-Nov-04 02:04N 34°40' E 135°25'0 0.0
2014-Nov-04 01:28N 34°40' E 135°25'0 0.0
2014-Nov-04 00:22N 34°40' E 135°25'0 0.0
2014-Nov-03 22:19N 34°40' E 135°25'3 3.5
2014-Nov-03 21:33N 34°38' E 135°23'1 1.1
2014-Nov-03 20:33N 34°37' E 135°23'0 0.0
2014-Nov-03 19:26N 34°37' E 135°23'0 0.0
2014-Nov-03 19:08N 34°37' E 135°23'0 0.0
2014-Nov-03 18:32N 34°37' E 135°23'0 0.0
2014-Nov-03 17:56N 34°37' E 135°23'0 0.1
2014-Nov-03 17:50N 34°37' E 135°23'0 0.0
2014-Nov-03 17:20N 34°37' E 135°23'0 0.0
2014-Nov-03 16:32N 34°37' E 135°23'0 0.0
2014-Nov-03 14:32N 34°37' E 135°23'0 0.0
2014-Nov-03 13:32N 34°37' E 135°23'0 0.0
2014-Nov-03 12:32N 34°37' E 135°23'0 0.0
2014-Nov-03 11:32N 34°37' E 135°23'0 0.0
2014-Nov-03 10:32N 34°37' E 135°23'0 0.0
2014-Nov-03 09:32N 34°37' E 135°23'0 0.0
2014-Nov-03 08:20N 34°37' E 135°23'0 0.0
2014-Nov-03 07:32N 34°37' E 135°23'0 0.0
2014-Nov-03 06:26N 34°37' E 135°23'0 0.1
2014-Nov-03 05:26N 34°37' E 135°23'0 0.0
2014-Nov-03 04:32N 34°37' E 135°23'0 0.0
2014-Nov-03 03:32N 34°37' E 135°23'4 3.9
2014-Nov-03 02:33N 34°36' E 135°18'1111.0
2014-Nov-03 01:33N 34°35' E 135°05'  

Dump ship's entire track history